createdAt,value
2023-02-16T00:00:42.484Z,80.32
2023-02-16T00:03:19.046Z,115.38
2023-02-16T00:05:47.420Z,117.15
2023-02-16T00:08:15.215Z,69.57
2023-02-16T00:11:03.516Z,57.08
2023-02-16T00:13:52.864Z,40.22
2023-02-16T00:16:25.077Z,22.73
2023-02-16T00:18:53.581Z,19.00
2023-02-16T00:21:21.908Z,23.42
2023-02-16T00:23:49.424Z,24.88
2023-02-16T00:26:24.382Z,22.75
2023-02-16T00:29:00.782Z,23.75
2023-02-16T00:31:33.483Z,27.02
2023-02-16T00:34:27.276Z,29.75
2023-02-16T00:36:56.607Z,25.85
2023-02-16T00:39:26.211Z,23.20
2023-02-16T00:41:58.848Z,27.63
2023-02-16T00:44:41.160Z,31.40
2023-02-16T00:47:17.104Z,25.30
2023-02-16T00:49:44.776Z,31.77
2023-02-16T00:52:39.505Z,25.85
2023-02-16T00:55:33.511Z,21.33
2023-02-16T00:58:33.776Z,24.42
2023-02-16T01:01:09.613Z,27.55
2023-02-16T01:03:37.611Z,24.40
2023-02-16T01:06:24.372Z,23.13
2023-02-16T01:09:19.217Z,21.38
2023-02-16T01:11:46.614Z,22.83
2023-02-16T01:14:14.078Z,21.40
2023-02-16T01:16:43.463Z,22.45
2023-02-16T01:19:12.698Z,23.15
2023-02-16T01:21:40.538Z,22.95
2023-02-16T01:24:08.294Z,23.17
2023-02-16T01:26:41.765Z,22.23
2023-02-16T01:29:17.066Z,22.77
2023-02-16T01:31:45.871Z,20.10
2023-02-16T01:34:14.259Z,20.95
2023-02-16T01:36:48.326Z,21.83
2023-02-16T01:39:21.132Z,20.75
2023-02-16T01:42:45.140Z,20.50
2023-02-16T01:45:20.072Z,20.85
2023-02-16T01:47:50.415Z,22.92
2023-02-16T01:50:38.038Z,34.85
2023-02-16T01:53:44.001Z,41.85
2023-02-16T01:56:29.610Z,23.95
2023-02-16T01:59:33.850Z,24.85
2023-02-16T02:02:20.268Z,20.40
2023-02-16T02:05:13.803Z,38.80
2023-02-16T02:07:50.073Z,41.20
2023-02-16T02:10:26.610Z,32.22
2023-02-16T02:13:11.478Z,24.10
2023-02-16T02:15:39.535Z,24.08
2023-02-16T02:18:07.137Z,21.43
2023-02-16T02:21:11.226Z,20.50
2023-02-16T02:24:09.531Z,20.70
2023-02-16T02:27:24.239Z,20.13
2023-02-16T02:30:18.698Z,20.98
2023-02-16T02:32:58.269Z,21.08
2023-02-16T02:35:38.393Z,23.67
2023-02-16T02:38:22.341Z,21.95
2023-02-16T02:41:20.990Z,24.25
2023-02-16T02:46:33.983Z,21.80
2023-02-16T02:49:03.361Z,24.27
2023-02-16T02:51:31.076Z,23.67
2023-02-16T02:54:42.283Z,21.38
2023-02-16T02:57:51.056Z,18.73
2023-02-16T03:00:49.750Z,17.52
2023-02-16T03:03:27.739Z,17.25
2023-02-16T03:06:03.196Z,16.63
2023-02-16T03:08:34.995Z,17.17
2023-02-16T03:11:27.744Z,16.05
2023-02-16T03:14:04.751Z,15.32
2023-02-16T03:16:41.244Z,15.70
2023-02-16T03:19:31.848Z,16.40
2023-02-16T03:22:19.530Z,15.88
2023-02-16T03:25:05.960Z,15.43
2023-02-16T03:28:00.023Z,15.35
2023-02-16T03:30:29.536Z,16.35
2023-02-16T03:32:57.119Z,16.27
2023-02-16T03:35:25.752Z,16.52
2023-02-16T03:40:30.953Z,16.13
2023-02-16T03:43:05.101Z,16.77
2023-02-16T03:45:37.524Z,17.60
2023-02-16T03:48:05.565Z,16.15
2023-02-16T03:50:33.055Z,16.42
2023-02-16T03:53:09.458Z,15.90
2023-02-16T03:55:41.312Z,16.73
2023-02-16T03:58:11.664Z,16.10
2023-02-16T04:00:40.285Z,16.15
2023-02-16T04:05:38.811Z,15.75
2023-02-16T04:08:07.209Z,16.27
2023-02-16T04:10:35.194Z,16.70
2023-02-16T04:13:02.620Z,15.93
2023-02-16T04:15:31.124Z,17.15
2023-02-16T04:20:31.407Z,16.02
2023-02-16T04:22:59.662Z,16.65
2023-02-16T04:25:27.974Z,15.75
2023-02-16T04:27:56.154Z,16.48
2023-02-16T04:30:29.366Z,16.70
2023-02-16T04:32:58.817Z,16.30
2023-02-16T04:35:26.352Z,16.92
2023-02-16T04:37:53.872Z,16.45
2023-02-16T04:40:21.572Z,15.02
2023-02-16T04:42:49.068Z,17.57
2023-02-16T04:45:16.745Z,15.18
2023-02-16T04:47:44.323Z,15.47
2023-02-16T04:50:12.547Z,15.60
2023-02-16T04:52:40.444Z,14.25
2023-02-16T04:55:10.822Z,15.70
2023-02-16T04:57:39.974Z,15.07
2023-02-16T05:00:11.872Z,15.80
2023-02-16T05:02:39.313Z,15.20
2023-02-16T05:05:07.580Z,14.70
2023-02-16T05:07:36.154Z,15.27
2023-02-16T05:12:49.787Z,12.93
2023-02-16T05:15:17.344Z,15.45
2023-02-16T05:17:44.786Z,12.80
2023-02-16T05:20:12.913Z,14.32
2023-02-16T05:22:40.339Z,13.43
2023-02-16T05:25:08.060Z,13.50
2023-02-16T05:27:35.879Z,12.70
2023-02-16T05:30:04.025Z,13.70
2023-02-16T05:32:31.435Z,14.23
2023-02-16T05:34:58.804Z,13.25
2023-02-16T05:37:26.349Z,13.45
2023-02-16T05:39:53.935Z,12.40
2023-02-16T05:42:21.347Z,12.52
2023-02-16T05:44:48.768Z,12.55
2023-02-16T05:47:16.306Z,11.15
2023-02-16T05:49:43.664Z,10.60
2023-02-16T05:52:10.991Z,10.93
2023-02-16T05:54:38.405Z,14.73
2023-02-16T05:57:05.840Z,11.05
2023-02-16T05:59:33.233Z,11.25
2023-02-16T06:02:00.548Z,10.13
2023-02-16T06:04:28.653Z,11.73
2023-02-16T06:06:56.115Z,11.85
2023-02-16T06:09:23.735Z,10.77
2023-02-16T06:11:51.100Z,10.65
2023-02-16T06:14:21.285Z,11.43
2023-02-16T06:16:51.708Z,10.23
2023-02-16T06:19:20.083Z,10.80
2023-02-16T06:21:48.322Z,12.93
2023-02-16T06:24:16.059Z,14.57
2023-02-16T06:26:43.500Z,13.97
2023-02-16T06:29:11.100Z,10.35
2023-02-16T06:31:38.620Z,11.25
2023-02-16T06:34:06.526Z,10.27
2023-02-16T06:36:34.855Z,9.98
2023-02-16T06:39:02.367Z,10.73
2023-02-16T06:41:35.737Z,11.77
2023-02-16T06:44:08.218Z,12.13
2023-02-16T06:46:35.944Z,11.32
2023-02-16T06:49:03.735Z,21.00
2023-02-16T06:51:31.341Z,92.25
2023-02-16T06:53:59.395Z,87.22
2023-02-16T06:56:26.758Z,97.28
2023-02-16T06:58:54.165Z,130.25
2023-02-16T07:01:26.024Z,129.25
2023-02-16T07:03:55.244Z,125.80
2023-02-16T07:06:26.266Z,131.60
2023-02-16T07:08:54.155Z,116.45
2023-02-16T07:11:21.976Z,99.32
2023-02-16T07:13:50.304Z,103.05
2023-02-16T07:16:17.788Z,91.10
2023-02-16T07:18:46.593Z,92.73
2023-02-16T07:21:14.980Z,94.28
2023-02-16T07:26:10.245Z,89.87
2023-02-16T07:28:38.039Z,97.70
2023-02-16T07:31:15.136Z,93.13
2023-02-16T07:33:43.311Z,102.47
2023-02-16T07:36:12.741Z,101.35
2023-02-16T07:38:43.371Z,99.95
2023-02-16T07:41:12.334Z,107.20
2023-02-16T07:43:42.762Z,106.60
2023-02-16T07:46:10.813Z,107.45
2023-02-16T07:48:38.185Z,105.18
2023-02-16T07:51:06.137Z,109.40
2023-02-16T07:53:33.894Z,115.60
2023-02-16T07:56:01.422Z,110.82
2023-02-16T07:58:28.878Z,109.47
2023-02-16T08:01:09.956Z,118.28
2023-02-16T08:03:38.873Z,117.63
2023-02-16T08:06:07.890Z,109.68
2023-02-16T08:08:37.211Z,110.50
2023-02-16T08:11:15.216Z,111.63
2023-02-16T08:13:43.665Z,107.45
2023-02-16T08:18:41.917Z,102.28
2023-02-16T08:21:19.847Z,105.18
2023-02-16T08:23:54.320Z,99.78
2023-02-16T08:26:23.791Z,106.50
2023-02-16T08:28:52.681Z,101.65
2023-02-16T08:31:24.993Z,99.97
2023-02-16T08:33:55.002Z,98.30
2023-02-16T08:36:32.318Z,106.43
2023-02-16T08:39:02.039Z,102.45
2023-02-16T08:41:34.041Z,102.78
2023-02-16T08:44:02.804Z,98.95
2023-02-16T08:46:32.461Z,94.50
2023-02-16T08:49:01.542Z,94.28
2023-02-16T08:51:35.952Z,90.47
2023-02-16T08:54:08.218Z,99.70
2023-02-16T08:56:36.087Z,85.13
2023-02-16T08:59:03.968Z,79.28
2023-02-16T09:01:32.413Z,82.50
2023-02-16T09:03:59.779Z,67.75
2023-02-16T09:06:27.519Z,73.87
2023-02-16T09:08:57.284Z,61.00
2023-02-16T09:11:25.553Z,63.10
2023-02-16T09:16:23.754Z,72.28
2023-02-16T09:18:53.013Z,72.68
2023-02-16T09:21:25.538Z,70.57
2023-02-16T09:23:56.495Z,69.93
2023-02-16T09:26:26.860Z,72.35
2023-02-16T09:28:55.312Z,79.97
2023-02-16T09:31:34.252Z,73.47
2023-02-16T09:34:21.796Z,63.00
2023-02-16T09:36:50.853Z,67.60
2023-02-16T09:39:19.161Z,63.20
2023-02-16T09:42:21.600Z,59.03
2023-02-16T09:45:13.771Z,53.85
2023-02-16T09:47:46.284Z,53.22
2023-02-16T09:50:52.108Z,48.45
2023-02-16T09:53:45.312Z,47.33
2023-02-16T09:58:56.480Z,44.72
2023-02-16T10:01:41.283Z,43.60
2023-02-16T10:04:35.399Z,40.70
2023-02-16T10:07:29.315Z,35.80
2023-02-16T10:09:59.519Z,37.95
2023-02-16T10:12:41.411Z,31.92
2023-02-16T10:15:18.172Z,34.45
2023-02-16T10:17:52.160Z,32.25
2023-02-16T10:20:38.132Z,31.52
2023-02-16T10:23:49.618Z,29.27
2023-02-16T10:26:35.281Z,25.95
2023-02-16T10:29:15.687Z,24.27
2023-02-16T10:32:33.943Z,21.63
2023-02-16T10:35:13.646Z,25.70
2023-02-16T10:38:06.748Z,29.10
2023-02-16T10:40:57.995Z,30.90
2023-02-16T10:43:44.361Z,23.38
2023-02-16T10:46:22.275Z,21.08
2023-02-16T10:51:28.205Z,19.17
2023-02-16T10:54:08.355Z,17.70
2023-02-16T10:56:52.373Z,19.27
2023-02-16T10:59:37.529Z,19.63
2023-02-16T11:02:41.858Z,16.85
2023-02-16T11:05:38.408Z,20.23
2023-02-16T11:08:11.284Z,18.98
2023-02-16T11:10:52.748Z,18.08
2023-02-16T11:13:33.834Z,17.23
2023-02-16T11:16:09.818Z,18.20
2023-02-16T11:18:42.396Z,13.45
2023-02-16T11:21:12.218Z,13.73
2023-02-16T11:23:44.997Z,15.68
2023-02-16T11:26:12.413Z,15.13
2023-02-16T11:28:48.340Z,13.32
2023-02-16T11:31:18.761Z,14.63
2023-02-16T11:34:33.481Z,14.38
2023-02-16T11:37:09.094Z,14.68
2023-02-16T11:39:41.555Z,11.27
2023-02-16T11:42:28.708Z,12.27
2023-02-16T11:44:59.217Z,12.20
2023-02-16T11:47:33.126Z,12.00
2023-02-16T11:50:29.755Z,13.98
2023-02-16T11:53:17.636Z,17.08
2023-02-16T11:55:51.159Z,13.88
2023-02-16T11:58:27.805Z,13.15
2023-02-16T12:01:37.489Z,14.55
2023-02-16T12:04:31.821Z,14.40
2023-02-16T12:07:17.294Z,12.95
2023-02-16T12:10:00.948Z,13.63
2023-02-16T12:12:43.274Z,14.98
2023-02-16T12:15:51.137Z,21.90
2023-02-16T12:21:50.735Z,13.25
2023-02-16T12:25:22.572Z,14.10
2023-02-16T12:28:22.481Z,14.63
2023-02-16T12:31:09.670Z,14.18
2023-02-16T12:34:17.684Z,14.93
2023-02-16T12:37:09.071Z,14.50
2023-02-16T12:40:30.468Z,14.85
2023-02-16T12:43:40.046Z,13.30
2023-02-16T12:46:39.603Z,13.82
2023-02-16T12:49:27.510Z,14.60
2023-02-16T12:54:57.498Z,13.23
2023-02-16T12:57:30.815Z,15.32
2023-02-16T13:00:51.135Z,13.20
2023-02-16T13:03:42.251Z,16.73
2023-02-16T13:06:25.427Z,15.10
2023-02-16T13:09:26.866Z,15.50
2023-02-16T13:12:49.925Z,15.82
2023-02-16T13:15:25.076Z,15.13
2023-02-16T13:18:21.523Z,15.50
2023-02-16T13:20:59.814Z,15.48
2023-02-16T13:23:38.020Z,15.38
2023-02-16T13:29:30.725Z,14.27
2023-02-16T13:32:54.681Z,14.05
2023-02-16T13:35:30.127Z,16.00
2023-02-16T13:38:29.180Z,16.92
2023-02-16T13:41:09.913Z,12.55
2023-02-16T13:43:58.529Z,16.05
2023-02-16T13:46:36.670Z,18.90
2023-02-16T13:51:46.204Z,14.05
2023-02-16T13:54:34.457Z,15.98
2023-02-16T13:57:04.321Z,13.50
2023-02-16T13:59:37.778Z,13.55
2023-02-16T14:02:13.268Z,14.93
2023-02-16T14:04:40.733Z,13.50
2023-02-16T14:07:08.078Z,14.83
2023-02-16T14:09:38.443Z,14.27
2023-02-16T14:12:11.872Z,15.57
2023-02-16T14:15:02.971Z,13.88
2023-02-16T14:17:35.017Z,13.13
2023-02-16T14:20:15.016Z,16.90
2023-02-16T14:22:45.446Z,13.45
2023-02-16T14:25:25.060Z,13.15
2023-02-16T14:28:01.346Z,15.45
2023-02-16T14:30:47.346Z,12.63
2023-02-16T14:33:17.451Z,12.85
2023-02-16T14:36:12.294Z,13.00
2023-02-16T14:38:45.056Z,14.95
2023-02-16T14:41:27.577Z,15.52
2023-02-16T14:44:07.081Z,13.30
2023-02-16T14:46:45.689Z,11.93
2023-02-16T14:49:50.969Z,13.45
2023-02-16T14:53:07.594Z,14.82
2023-02-16T14:56:04.607Z,17.92
2023-02-16T14:59:00.729Z,13.93
2023-02-16T15:01:29.049Z,15.07
2023-02-16T15:06:40.172Z,16.83
2023-02-16T15:09:27.125Z,18.17
2023-02-16T15:12:20.011Z,18.05
2023-02-16T15:15:04.578Z,16.90
2023-02-16T15:17:48.835Z,16.52
2023-02-16T15:20:38.648Z,17.65
2023-02-16T15:23:24.310Z,18.90
2023-02-16T15:25:55.443Z,18.05
2023-02-16T15:28:29.478Z,17.42
2023-02-16T15:31:18.063Z,18.08
2023-02-16T15:34:05.849Z,18.45
2023-02-16T15:36:45.281Z,19.08
2023-02-16T15:39:43.657Z,21.77
2023-02-16T15:42:23.814Z,21.48
2023-02-16T15:44:52.404Z,49.17
2023-02-16T15:47:26.749Z,42.58
2023-02-16T15:49:55.676Z,41.00
2023-02-16T15:52:33.636Z,45.85
2023-02-16T15:55:06.378Z,38.38
2023-02-16T15:57:38.598Z,39.63
2023-02-16T16:00:19.612Z,34.50
2023-02-16T16:02:51.394Z,36.33
2023-02-16T16:05:36.314Z,52.42
2023-02-16T16:08:07.030Z,34.83
2023-02-16T16:10:39.195Z,28.55
2023-02-16T16:13:29.370Z,28.55
2023-02-16T16:16:04.710Z,31.05
2023-02-16T16:18:46.291Z,32.25
2023-02-16T16:21:35.988Z,32.95
2023-02-16T16:24:07.618Z,24.45
2023-02-16T16:26:58.457Z,23.52
2023-02-16T16:29:47.846Z,25.45
2023-02-16T16:32:28.780Z,27.38
2023-02-16T16:34:56.865Z,25.90
2023-02-16T16:37:35.744Z,27.42
2023-02-16T16:40:20.345Z,28.73
2023-02-16T16:43:17.076Z,29.05
2023-02-16T16:45:54.129Z,39.58
2023-02-16T16:48:34.637Z,45.75
2023-02-16T16:51:27.544Z,45.90
2023-02-16T16:54:30.538Z,68.32
2023-02-16T16:56:58.134Z,62.53
2023-02-16T16:59:25.590Z,69.57
2023-02-16T17:01:53.104Z,85.55
2023-02-16T17:04:22.085Z,82.67
2023-02-16T17:06:49.624Z,54.70
2023-02-16T17:09:17.117Z,47.70
2023-02-16T17:11:44.575Z,72.05
2023-02-16T17:14:18.751Z,64.25
2023-02-16T17:16:50.987Z,63.45
2023-02-16T17:19:22.344Z,54.30
2023-02-16T17:21:50.377Z,37.30
2023-02-16T17:24:17.843Z,29.65
2023-02-16T17:26:45.356Z,29.15
2023-02-16T17:29:12.709Z,31.00
2023-02-16T17:31:40.201Z,33.55
2023-02-16T17:34:07.618Z,36.05
2023-02-16T17:36:37.161Z,32.30
2023-02-16T17:39:04.890Z,32.65
2023-02-16T17:41:32.699Z,29.47
2023-02-16T17:44:00.127Z,36.60
2023-02-16T17:46:28.657Z,50.65
2023-02-16T17:48:56.438Z,43.67
2023-02-16T17:51:25.879Z,47.23
2023-02-16T17:53:53.447Z,46.53
2023-02-16T17:56:24.200Z,35.65
2023-02-16T17:58:51.832Z,34.10
2023-02-16T18:01:21.134Z,33.08
2023-02-16T18:03:49.197Z,34.45
2023-02-16T18:06:19.644Z,47.45
2023-02-16T18:08:47.115Z,55.00
2023-02-16T18:11:14.550Z,54.58
2023-02-16T18:13:42.259Z,38.80
2023-02-16T18:16:18.751Z,30.08
2023-02-16T18:18:46.322Z,30.23
2023-02-16T18:21:14.038Z,28.77
2023-02-16T18:23:41.930Z,25.87
2023-02-16T18:26:14.783Z,26.10
2023-02-16T18:28:43.198Z,27.88
2023-02-16T18:33:38.134Z,37.25
2023-02-16T18:36:06.440Z,41.10
2023-02-16T18:38:34.122Z,30.65
2023-02-16T18:41:01.645Z,32.83
2023-02-16T18:43:29.017Z,34.22
2023-02-16T18:45:56.348Z,44.42
2023-02-16T18:48:24.024Z,39.05
2023-02-16T18:50:51.463Z,22.60
2023-02-16T18:53:18.915Z,20.73
2023-02-16T18:55:46.267Z,34.33
2023-02-16T18:58:14.630Z,38.92
2023-02-16T19:00:42.312Z,26.70
2023-02-16T19:03:09.911Z,29.92
2023-02-16T19:05:37.528Z,40.67
2023-02-16T19:08:06.411Z,38.73
2023-02-16T19:10:33.987Z,39.17
2023-02-16T19:13:02.236Z,40.50
2023-02-16T19:15:29.927Z,29.45
2023-02-16T19:17:57.280Z,47.17
2023-02-16T19:20:25.574Z,33.70
2023-02-16T19:22:53.187Z,25.73
2023-02-16T19:25:21.320Z,27.37
2023-02-16T19:27:48.759Z,29.42
2023-02-16T19:30:16.262Z,26.92
2023-02-16T19:32:43.746Z,27.02
2023-02-16T19:35:12.281Z,32.25
2023-02-16T19:37:39.921Z,38.92
2023-02-16T19:40:11.505Z,32.27
2023-02-16T19:42:39.275Z,33.30
2023-02-16T19:45:07.932Z,30.35
2023-02-16T19:50:03.440Z,23.77
2023-02-16T19:52:30.832Z,23.65
2023-02-16T19:54:58.271Z,20.58
2023-02-16T19:57:25.603Z,24.42
2023-02-16T19:59:52.968Z,22.38
2023-02-16T20:02:20.441Z,24.15
2023-02-16T20:04:47.868Z,23.95
2023-02-16T20:07:15.261Z,25.33
2023-02-16T20:09:42.665Z,29.13
2023-02-16T20:12:10.145Z,34.17
2023-02-16T20:14:37.572Z,30.60
2023-02-16T20:17:05.108Z,29.63
2023-02-16T20:19:32.726Z,35.13
2023-02-16T20:22:00.137Z,30.13
2023-02-16T20:24:27.662Z,20.50
2023-02-16T20:26:55.043Z,20.50
2023-02-16T20:29:22.413Z,17.90
2023-02-16T20:31:54.870Z,19.17
2023-02-16T20:34:25.045Z,18.92
2023-02-16T20:36:53.230Z,18.38
2023-02-16T20:39:20.875Z,18.55
2023-02-16T20:41:48.224Z,18.27
2023-02-16T20:44:15.994Z,18.15
2023-02-16T20:46:43.568Z,18.23
2023-02-16T20:49:12.086Z,18.93
2023-02-16T20:51:41.270Z,18.35
2023-02-16T20:54:09.567Z,18.42
2023-02-16T20:56:37.274Z,18.48
2023-02-16T20:59:05.386Z,19.98
2023-02-16T21:01:41.452Z,23.58
2023-02-16T21:04:10.718Z,26.48
2023-02-16T21:06:38.401Z,24.55
2023-02-16T21:09:08.029Z,24.95
2023-02-16T21:11:37.715Z,25.08
2023-02-16T21:14:07.889Z,25.95
2023-02-16T21:16:35.490Z,28.45
2023-02-16T21:19:11.735Z,30.17
2023-02-16T21:21:44.784Z,29.08
2023-02-16T21:24:12.105Z,29.83
2023-02-16T21:26:39.521Z,31.20
2023-02-16T21:29:06.831Z,31.52
2023-02-16T21:31:34.395Z,28.98
2023-02-16T21:34:01.843Z,28.13
2023-02-16T21:36:29.266Z,28.85
2023-02-16T21:38:56.671Z,30.20
2023-02-16T21:41:29.289Z,26.52
2023-02-16T21:44:09.529Z,25.60
2023-02-16T21:46:43.773Z,27.13
2023-02-16T21:49:17.478Z,25.38
2023-02-16T21:51:47.979Z,22.13
2023-02-16T21:54:39.037Z,21.27
2023-02-16T21:57:06.542Z,23.27
2023-02-16T21:59:34.048Z,23.90
2023-02-16T22:02:01.563Z,25.35
2023-02-16T22:04:28.907Z,23.48
2023-02-16T22:06:56.592Z,24.35
2023-02-16T22:09:24.182Z,23.88
2023-02-16T22:11:52.046Z,23.50
2023-02-16T22:14:19.857Z,19.42
2023-02-16T22:16:48.676Z,20.23
2023-02-16T22:19:19.046Z,19.15
2023-02-16T22:21:48.461Z,21.50
2023-02-16T22:24:18.103Z,17.92
2023-02-16T22:26:49.262Z,20.85
2023-02-16T22:29:18.010Z,20.08
2023-02-16T22:34:18.696Z,17.42
2023-02-16T22:36:46.126Z,18.17
2023-02-16T22:39:15.640Z,19.27
2023-02-16T22:41:43.258Z,16.88
2023-02-16T22:44:12.220Z,17.08
2023-02-16T22:46:39.594Z,18.05
2023-02-16T22:49:07.195Z,17.15
2023-02-16T22:51:34.571Z,17.73
2023-02-16T22:54:02.223Z,16.13
2023-02-16T22:56:31.317Z,18.23
2023-02-16T22:59:00.438Z,17.50
2023-02-16T23:01:30.578Z,16.85
2023-02-16T23:04:00.886Z,14.90
2023-02-16T23:06:35.488Z,13.38
2023-02-16T23:09:12.373Z,13.57
2023-02-16T23:11:39.897Z,13.93
2023-02-16T23:14:16.227Z,14.93
2023-02-16T23:16:51.675Z,14.82
2023-02-16T23:19:24.972Z,15.05
2023-02-16T23:21:53.098Z,14.73
2023-02-16T23:24:23.656Z,15.75
2023-02-16T23:26:52.336Z,13.63
2023-02-16T23:29:19.763Z,14.40
2023-02-16T23:31:48.931Z,14.23
2023-02-16T23:34:17.832Z,14.45
2023-02-16T23:36:46.369Z,14.57
2023-02-16T23:41:44.459Z,12.73
2023-02-16T23:44:14.349Z,13.25
2023-02-16T23:46:41.790Z,12.52
2023-02-16T23:49:09.434Z,12.45
2023-02-16T23:51:36.813Z,12.93
2023-02-16T23:54:04.493Z,12.95
2023-02-16T23:56:31.856Z,14.27
2023-02-16T23:59:00.743Z,14.75
